createdAt,value
2022-09-02T00:00:55.919Z,99.90
2022-09-02T00:05:58.935Z,99.90
2022-09-02T00:11:03.520Z,99.90
2022-09-02T00:16:10.792Z,99.90
2022-09-02T00:21:14.488Z,99.90
2022-09-02T00:26:18.217Z,99.90
2022-09-02T00:31:22.523Z,99.90
2022-09-02T00:36:25.329Z,99.90
2022-09-02T00:41:30.237Z,99.90
2022-09-02T00:46:35.104Z,99.90
2022-09-02T00:51:44.747Z,99.90
2022-09-02T00:56:48.691Z,99.90
2022-09-02T01:01:58.327Z,99.90
2022-09-02T01:07:01.249Z,99.90
2022-09-02T01:12:04.629Z,99.90
2022-09-02T01:17:08.763Z,99.90
2022-09-02T01:22:19.742Z,99.90
2022-09-02T01:27:24.897Z,99.90
2022-09-02T01:32:30.154Z,99.90
2022-09-02T01:37:34.789Z,99.90
2022-09-02T01:42:37.693Z,99.90
2022-09-02T01:47:40.426Z,99.90
2022-09-02T01:52:44.723Z,99.90
2022-09-02T01:57:47.544Z,99.90
2022-09-02T02:02:50.383Z,99.90
2022-09-02T02:07:54.484Z,99.90
2022-09-02T02:12:57.254Z,99.90
2022-09-02T02:17:59.962Z,99.90
2022-09-02T02:23:05.611Z,99.90
2022-09-02T02:28:08.537Z,99.90
2022-09-02T02:33:11.350Z,99.90
2022-09-02T02:38:15.858Z,99.90
2022-09-02T02:43:18.643Z,99.90
2022-09-02T02:48:21.394Z,99.90
2022-09-02T02:53:25.829Z,99.90
2022-09-02T02:58:29.145Z,99.90
2022-09-02T03:03:31.908Z,99.90
2022-09-02T03:08:36.788Z,99.90
2022-09-02T03:13:39.476Z,99.90
2022-09-02T03:18:42.321Z,99.90
2022-09-02T03:23:46.744Z,99.90
2022-09-02T03:28:50.292Z,99.90
2022-09-02T03:33:53.335Z,99.90
2022-09-02T03:38:58.317Z,99.90
2022-09-02T03:44:02.051Z,99.90
2022-09-02T03:49:05.090Z,99.90
2022-09-02T03:54:10.231Z,99.90
2022-09-02T03:59:12.985Z,99.90
2022-09-02T04:04:17.781Z,99.90
2022-09-02T04:09:25.182Z,99.90
2022-09-02T04:14:27.948Z,99.90
2022-09-02T04:19:30.615Z,99.90
2022-09-02T04:24:34.741Z,99.90
2022-09-02T04:29:37.884Z,99.90
2022-09-02T04:34:40.582Z,99.90
2022-09-02T04:39:44.578Z,99.90
2022-09-02T04:44:47.491Z,99.90
2022-09-02T04:49:52.301Z,99.90
2022-09-02T04:54:56.345Z,99.90
2022-09-02T04:59:59.096Z,99.90
2022-09-02T05:05:01.796Z,99.90
2022-09-02T05:10:08.128Z,99.90
2022-09-02T05:15:12.193Z,99.90
2022-09-02T05:20:14.864Z,99.90
2022-09-02T05:25:19.058Z,99.90
2022-09-02T05:30:21.857Z,99.90
2022-09-02T05:35:24.570Z,99.90
2022-09-02T05:40:28.841Z,99.90
2022-09-02T05:45:31.707Z,99.90
2022-09-02T05:50:35.061Z,99.90
2022-09-02T05:55:41.109Z,99.90
2022-09-02T06:00:44.128Z,99.90
2022-09-02T06:05:55.445Z,99.90
2022-09-02T06:11:01.121Z,99.90
2022-09-02T06:16:04.786Z,99.90
2022-09-02T06:21:07.874Z,99.90
2022-09-02T06:26:13.627Z,99.90
2022-09-02T06:31:19.180Z,99.90
2022-09-02T06:36:23.600Z,99.90
2022-09-02T06:41:34.811Z,99.90
2022-09-02T06:46:39.952Z,99.90
2022-09-02T06:51:44.582Z,99.90
2022-09-02T06:56:50.047Z,99.90
2022-09-02T07:01:52.896Z,99.90
2022-09-02T07:06:56.527Z,99.90
2022-09-02T07:12:04.970Z,99.90
2022-09-02T07:17:09.270Z,99.90
2022-09-02T07:22:12.153Z,99.90
2022-09-02T07:27:16.284Z,99.90
2022-09-02T07:32:19.643Z,99.90
2022-09-02T07:37:22.321Z,99.90
2022-09-02T07:42:28.497Z,99.90
2022-09-02T07:47:32.597Z,99.90
2022-09-02T07:52:35.308Z,99.90
2022-09-02T07:57:39.729Z,99.90
2022-09-02T08:02:42.607Z,99.90
2022-09-02T08:07:45.581Z,99.90
2022-09-02T08:12:50.481Z,99.90
2022-09-02T08:17:53.163Z,99.90
2022-09-02T08:23:05.275Z,90.60
2022-09-02T08:28:16.120Z,79.00
2022-09-02T08:33:18.778Z,66.20
2022-09-02T08:38:22.553Z,57.60
2022-09-02T08:43:38.320Z,52.50
2022-09-02T08:48:46.273Z,52.60
2022-09-02T08:53:54.971Z,46.30
2022-09-02T08:59:03.721Z,45.40
2022-09-02T09:04:19.208Z,44.10
2022-09-02T09:09:30.515Z,42.70
2022-09-02T09:14:43.389Z,39.00
2022-09-02T09:19:51.758Z,38.30
2022-09-02T09:24:54.426Z,39.30
2022-09-02T09:29:58.430Z,37.80
2022-09-02T09:35:07.491Z,36.20
2022-09-02T09:40:31.502Z,37.20
2022-09-02T09:45:37.620Z,35.00
2022-09-02T09:50:40.524Z,32.60
2022-09-02T09:55:53.609Z,29.70
2022-09-02T10:01:00.729Z,31.60
2022-09-02T10:06:20.154Z,36.30
2022-09-02T10:11:28.296Z,42.00
2022-09-02T10:16:47.251Z,43.50
2022-09-02T10:22:09.888Z,45.60
2022-09-02T10:27:17.290Z,46.00
2022-09-02T10:32:43.242Z,45.30
2022-09-02T10:38:07.440Z,45.20
2022-09-02T10:43:24.015Z,45.70
2022-09-02T10:48:40.503Z,47.10
2022-09-02T10:53:54.065Z,47.00
2022-09-02T10:59:03.134Z,45.10
2022-09-02T11:04:13.394Z,44.70
2022-09-02T11:09:32.672Z,45.10
2022-09-02T11:14:41.760Z,44.30
2022-09-02T11:19:53.551Z,44.70
2022-09-02T11:25:01.540Z,42.90
2022-09-02T11:30:07.184Z,37.60
2022-09-02T11:35:18.330Z,37.80
2022-09-02T11:40:35.184Z,41.60
2022-09-02T11:46:04.885Z,44.80
2022-09-02T11:51:43.302Z,47.90
2022-09-02T11:56:49.128Z,50.90
2022-09-02T12:01:54.277Z,49.70
2022-09-02T12:07:31.979Z,48.70
2022-09-02T12:13:08.546Z,50.20
2022-09-02T12:18:30.958Z,49.80
2022-09-02T12:24:09.868Z,48.50
2022-09-02T12:29:30.713Z,40.40
2022-09-02T12:35:09.046Z,35.20
2022-09-02T12:40:20.669Z,41.30
2022-09-02T12:45:29.075Z,41.90
2022-09-02T12:50:51.882Z,34.50
2022-09-02T12:56:01.353Z,30.60
2022-09-02T13:01:14.547Z,38.10
2022-09-02T13:06:25.269Z,43.00
2022-09-02T13:12:24.768Z,45.40
2022-09-02T13:17:44.637Z,47.20
2022-09-02T13:23:06.120Z,49.40
2022-09-02T13:28:42.300Z,49.00
2022-09-02T13:33:45.176Z,50.00
2022-09-02T13:38:47.892Z,50.20
2022-09-02T13:44:06.968Z,49.10
2022-09-02T13:49:20.351Z,50.00
2022-09-02T13:54:32.645Z,49.20
2022-09-02T13:59:39.387Z,48.50
2022-09-02T14:04:42.157Z,48.50
2022-09-02T14:09:46.270Z,46.70
2022-09-02T14:14:50.445Z,46.90
2022-09-02T14:20:08.204Z,46.90
2022-09-02T14:25:14.392Z,45.00
2022-09-02T14:30:32.095Z,43.60
2022-09-02T14:35:34.821Z,44.00
2022-09-02T14:40:39.146Z,48.60
2022-09-02T14:45:47.167Z,49.00
2022-09-02T14:50:50.828Z,51.00
2022-09-02T14:55:56.528Z,51.70
2022-09-02T15:01:02.330Z,53.20
2022-09-02T15:06:05.116Z,52.80
2022-09-02T15:11:07.920Z,53.90
2022-09-02T15:16:12.116Z,55.40
2022-09-02T15:21:15.147Z,56.70
2022-09-02T15:26:17.930Z,53.10
2022-09-02T15:31:22.103Z,47.00
2022-09-02T15:36:26.224Z,46.30
2022-09-02T15:41:31.676Z,44.80
2022-09-02T15:46:37.073Z,45.30
2022-09-02T15:51:40.685Z,49.80
2022-09-02T15:56:45.624Z,51.70
2022-09-02T16:01:51.613Z,54.50
2022-09-02T16:06:54.403Z,56.90
2022-09-02T16:11:57.103Z,58.90
2022-09-02T16:17:01.372Z,60.30
2022-09-02T16:22:04.625Z,62.00
2022-09-02T16:27:07.414Z,63.30
2022-09-02T16:32:26.660Z,66.10
2022-09-02T16:37:30.690Z,67.90
2022-09-02T16:42:37.436Z,65.10
2022-09-02T16:47:42.414Z,63.60
2022-09-02T16:52:45.241Z,59.60
2022-09-02T16:57:47.928Z,59.10
2022-09-02T17:02:52.021Z,61.30
2022-09-02T17:07:55.691Z,58.90
2022-09-02T17:12:58.590Z,58.80
2022-09-02T17:18:02.613Z,59.70
2022-09-02T17:23:05.313Z,61.90
2022-09-02T17:28:08.405Z,65.10
2022-09-02T17:33:12.430Z,65.60
2022-09-02T17:38:15.193Z,67.80
2022-09-02T17:43:17.937Z,69.60
2022-09-02T17:48:39.088Z,71.20
2022-09-02T17:53:44.670Z,73.60
2022-09-02T17:59:10.391Z,74.90
2022-09-02T18:04:25.951Z,77.00
2022-09-02T18:09:29.412Z,78.90
2022-09-02T18:14:39.068Z,81.60
2022-09-02T18:19:57.476Z,81.50
2022-09-02T18:25:12.481Z,82.10
2022-09-02T18:30:21.328Z,81.60
2022-09-02T18:35:32.903Z,81.20
2022-09-02T18:40:44.437Z,83.70
2022-09-02T18:45:50.190Z,82.90
2022-09-02T18:50:57.987Z,85.00
2022-09-02T18:56:06.591Z,85.90
2022-09-02T19:01:15.721Z,85.30
2022-09-02T19:06:22.888Z,86.30
2022-09-02T19:11:27.237Z,86.00
2022-09-02T19:16:34.043Z,87.30
2022-09-02T19:21:44.356Z,88.00
2022-09-02T19:26:47.388Z,88.80
2022-09-02T19:31:51.888Z,89.20
2022-09-02T19:36:58.628Z,90.30
2022-09-02T19:42:02.050Z,91.10
2022-09-02T19:47:49.960Z,91.10
2022-09-02T19:52:29.015Z,91.80
2022-09-02T19:57:31.723Z,92.80
2022-09-02T20:02:34.590Z,93.30
2022-09-02T20:07:39.518Z,93.30
2022-09-02T20:12:42.239Z,93.60
2022-09-02T20:17:45.098Z,94.50
2022-09-02T20:22:54.631Z,93.90
2022-09-02T20:28:09.983Z,94.40
2022-09-02T20:33:16.941Z,94.50
2022-09-02T20:38:40.818Z,94.50
2022-09-02T20:44:02.385Z,95.20
2022-09-02T20:49:23.508Z,95.80
2022-09-02T20:54:40.309Z,97.30
2022-09-02T20:59:51.495Z,96.70
2022-09-02T21:04:58.141Z,96.10
2022-09-02T21:10:07.686Z,96.40
2022-09-02T21:15:23.502Z,97.50
2022-09-02T21:20:36.255Z,98.80
2022-09-02T21:26:38.073Z,98.30
2022-09-02T21:31:53.809Z,98.70
2022-09-02T21:36:58.765Z,98.90
2022-09-02T21:42:12.137Z,99.60
2022-09-02T21:47:22.365Z,99.80
2022-09-02T21:52:33.859Z,99.90
2022-09-02T21:57:56.670Z,99.90
2022-09-02T22:03:04.492Z,99.90
2022-09-02T22:08:13.731Z,99.90
2022-09-02T22:13:18.615Z,99.90
2022-09-02T22:18:37.943Z,99.90
2022-09-02T22:23:41.168Z,99.90
2022-09-02T22:28:50.771Z,99.90
2022-09-02T22:33:58.561Z,99.90
2022-09-02T22:39:02.099Z,99.90
2022-09-02T22:44:09.967Z,99.90
2022-09-02T22:49:46.002Z,99.90
2022-09-02T22:54:49.162Z,99.90
2022-09-02T23:00:01.991Z,99.90
2022-09-02T23:05:38.565Z,99.90
2022-09-02T23:10:47.178Z,99.90
2022-09-02T23:16:01.142Z,99.90
2022-09-02T23:21:16.886Z,99.90
2022-09-02T23:26:33.122Z,99.90
2022-09-02T23:31:52.974Z,99.90
2022-09-02T23:37:04.573Z,99.90
2022-09-02T23:42:08.112Z,99.90
2022-09-02T23:47:28.545Z,99.90
2022-09-02T23:52:42.892Z,99.90
2022-09-02T23:58:08.458Z,99.90
